• Join FlightAware (Why Join?)
  • Login
  • US Flag 
06:18PM EDT


 

Airport Tracker/Info


-or-


 

Live Flight TrackerFlight Track Log ✈ EJA829P ✈ 17-Jul-2013 ✈ KCMH - KAMW

Flight Track Log - Related Links

Times and Time Zones

All times are in EDT time to prevent confusion due to time zone crossing. See the EJA829P flight status page for this flight to view local times or setup timezone preferences in your user account.

Time Position Orientation Groundspeed Altitude Reporting Facility
EDT Latitude Longitude Course Direction KTS MPH feet Rate Location/Type
01:36PM 39.9947 -82.8978 274° West 153 176 1,300  Level Indianapolis Center
01:37PM 39.9964 -82.9278 274° West 190 219 2,600 2,700 Climbing Indianapolis Center
01:38PM 39.9975 -83.0050 271° West 206 237 5,600 2,940 Climbing Indianapolis Center
01:39PM 40.0014 -83.1203 273° West 269 310 8,700 2,820 Climbing Indianapolis Center
01:40PM 40.0050 -83.2244 273° West 285 328 11,500 2,580 Climbing Indianapolis Center
01:41PM 40.0222 -83.3303 282° West 297 342 14,100 2,280 Climbing Indianapolis Center
01:42PM 40.0400 -83.4406 282° West 310 357 16,300 1,860 Climbing Indianapolis Center
01:43PM 40.0581 -83.5561 282° West 324 373 18,000 1,320 Climbing Indianapolis Center
01:44PM 40.0783 -83.6853 282° West 359 413 19,100 1,680 Climbing Indianapolis Center
01:45PM 40.1017 -83.8328 282° West 354 407 21,500 1,980 Climbing Indianapolis Center
01:46PM 40.1219 -83.9597 282° West 357 411 23,200 1,560 Climbing Indianapolis Center
01:47PM 40.1419 -84.0917 281° West 367 422 24,800 1,500 Climbing Indianapolis Center
01:48PM 40.1625 -84.2261 281° West 374 430 26,400 1,320 Climbing Indianapolis Center
01:49PM 40.1828 -84.3614 281° West 376 433 27,600 1,140 Climbing Indianapolis Center
01:50PM 40.2033 -84.5008 281° West 387 445 28,800 1,380 Climbing Indianapolis Center
01:51PM 40.2242 -84.6408 281° West 389 448 30,500 1,500 Climbing Indianapolis Center
01:52PM 40.2439 -84.7764 281° West 378 435 32,000 1,380 Climbing Indianapolis Center
01:53PM 40.2653 -84.9108 282° West 376 433 33,400 1,440 Climbing Indianapolis Center
01:54PM 40.2869 -85.0725 280° West 379 436 35,000 1,260 Climbing Indianapolis Center
01:55PM 40.3058 -85.2047 281° West 373 429 36,000 480 Climbing Indianapolis Center
01:56PM 40.3256 -85.3464 280° West 394 453 36,000  Level Indianapolis Center
01:58PM 40.3469 -85.4925 281° West 409 471 36,000  Level Indianapolis Center
01:59PM 40.3683 -85.6422 281° West 419 482 36,000  Level Indianapolis Center
02:00PM 40.3881 -85.7928 280° West 423 487 36,000  Level Indianapolis Center
02:01PM 40.4094 -85.9436 281° West 430 495 36,000  Level Chicago Center
02:02PM 40.4333 -86.1258 280° West 428 493 36,000  Level Chicago Center
02:03PM 40.4544 -86.2797 280° West 431 496 36,000  Level Chicago Center
02:04PM 40.4881 -86.4292 287° West 430 495 36,000  Level Chicago Center
02:05PM 40.5239 -86.5767 288° West 429 494 36,000  Level Chicago Center
02:06PM 40.5606 -86.7256 288° West 430 495 36,000  Level Chicago Center
02:08PM 40.6394 -87.0544 288° West 434 499 36,000  Level Chicago Center
02:09PM 40.6706 -87.1925 287° West 429 494 36,000  Level Chicago Center
02:10PM 40.7142 -87.3719 288° West 431 496 36,000  Level Chicago Center
02:11PM 40.7500 -87.5211 288° West 428 493 36,000  Level Chicago Center
02:12PM 40.7839 -87.6717 287° West 428 493 36,000  Level Chicago Center
02:13PM 40.8189 -87.8225 287° West 428 493 36,000  Level Chicago Center
02:14PM 40.8539 -87.9728 287° West 428 493 36,000  Level Chicago Center
02:15PM 40.8881 -88.1236 287° West 428 493 36,000  Level Chicago Center
02:16PM 40.9300 -88.3050 287° West 429 494 36,000  Level Chicago Center
02:17PM 40.9636 -88.4583 286° West 431 496 36,000  Level Chicago Center
02:18PM 40.9983 -88.6092 287° West 430 495 36,000  Level Chicago Center
02:19PM 41.0300 -88.7594 286° West 425 489 36,000  Level Chicago Center
02:20PM 41.0664 -88.9136 287° West 434 499 36,000  Level Chicago Center
02:21PM 41.1075 -89.0972 287° West 434 499 36,000  Level Chicago Center
02:22PM 41.1406 -89.2481 286° West 434 499 36,000  Level Chicago Center
02:23PM 41.1742 -89.4014 286° West 435 501 36,000  Level Chicago Center
02:24PM 41.2064 -89.5542 286° West 434 499 36,000  Level Chicago Center
02:25PM 41.2397 -89.7086 286° West 437 503 36,000  Level Chicago Center
02:26PM 41.2725 -89.8642 286° West 434 499 36,000  Level Chicago Center
02:27PM 41.3111 -90.0453 286° West 434 499 36,000  Level Chicago Center
02:28PM 41.3369 -90.2033 282° West 434 499 36,000  Level Chicago Center
02:30PM 41.3453 -90.3611 274° West 438 504 36,000 -540 Level Chicago Center
02:31PM 41.3575 -90.5186 276° West 436 502 34,900 -1,440 Descending Chicago Center
02:32PM 41.3697 -90.6764 276° West 431 496 33,100 -1,320 Descending Chicago Center
02:33PM 41.3858 -90.8647 277° West 431 496 32,200 -1,440 Descending Chicago Center
02:34PM 41.4117 -91.0169 283° West 429 494 30,200 -1,980 Descending Chicago Center
02:35PM 41.4467 -91.1722 287° West 437 503 28,200 -2,040 Descending Chicago Center
02:36PM 41.4825 -91.3281 287° West 437 503 26,100 -1,860 Descending Chicago Center
02:37PM 41.5178 -91.4783 287° West 431 496 24,400 -1,020 Descending Chicago Center
02:38PM 41.5506 -91.6192 287° West 411 473 24,000 -840 Descending Chicago Center
02:39PM 41.5894 -91.7872 287° West 401 461 22,700 -1,320 Descending Chicago Center
02:40PM 41.6203 -91.9275 286° West 397 457 21,300 -1,380 Descending Chicago Center
02:41PM 41.6528 -92.0675 287° West 396 456 19,900 -1,260 Descending Chicago Center
02:42PM 41.6836 -92.2033 287° West 389 448 18,700 -1,020 Descending Chicago Center
02:43PM 41.7133 -92.3336 287° West 375 432 17,800 -1,140 Descending Chicago Center
02:44PM 41.7467 -92.4869 286° West 364 419 16,400 -1,320 Descending Chicago Center
02:45PM 41.7747 -92.6139 287° West 359 413 15,100 -1,260 Descending Chicago Center
02:46PM 41.8028 -92.7408 287° West 357 411 13,800 -1,260 Descending Chicago Center
02:47PM 41.8306 -92.8672 286° West 356 410 12,600 -2,100 Descending Chicago Center
02:48PM 41.8617 -93.0039 287° West 315 362 9,300 -2,520 Descending Minneapolis Center
02:49PM 41.8817 -93.0994 286° West 247 284 7,100 -2,040 Descending Minneapolis Center
02:50PM 41.8983 -93.1792 286° West 224 258 5,200 -1,500 Descending Minneapolis Center
02:51PM 41.9164 -93.2692 285° West 231 266 4,000 -600 Descending Minneapolis Center
02:52PM 41.9344 -93.3522 286° West 233 268 4,000 -180 Level Minneapolis Center
02:53PM 41.9522 -93.4383 286° West 226 260 3,700 -300 Descending Minneapolis Center
02:54PM 41.9678 -93.5106 286° West 225 259 3,500 -240 Descending Minneapolis Center
02:57PM 41.9833 -93.6167 289° West  Level FlightAware Approximate
03:04PM 41.9921 -93.6218 289° West  Level Estimated